• Join FlightAware (Why Join?)
  • Login
  • US Flag 
12:34PM EDT


 

Airport Tracker/Info


-or-


 

Live Flight TrackerFlight Track Log ✈ ASQ4179 ✈ 30-Jun-2013 ✈ KIAH - KIND

Flight Track Log - Related Links

Times and Time Zones

All times are in EDT time to prevent confusion due to time zone crossing. See the ASQ4179 flight status page for this flight to view local times or setup timezone preferences in your user account.

Time Position Orientation Groundspeed Altitude Reporting Facility
EDT Latitude Longitude Course Direction KTS MPH feet Rate Location/Type
12:02AM 29.9594 -95.3414 256° West 173 199 600  Level Houston Center
12:03AM 29.9489 -95.3886 256° West 186 214 3,000 1,560 Climbing Houston Center
12:04AM 29.9939 -95.3697 20° North 192 221 4,400 1,440 Climbing Houston Center
12:05AM 30.0675 -95.3333 23° Northeast 239 275 6,100 1,740 Climbing Houston Center
12:06AM 30.1375 -95.3003 22° Northeast 267 307 8,000 1,920 Climbing Houston Center
12:07AM 30.2067 -95.2647 24° Northeast 272 313 10,000 1,500 Climbing Houston Center
12:08AM 30.2819 -95.2283 23° Northeast 289 333 11,100 1,020 Climbing Houston Center
12:09AM 30.3636 -95.1881 23° Northeast 315 362 12,100 960 Climbing Houston Center
12:10AM 30.4450 -95.1469 24° Northeast 333 383 13,100 960 Climbing Houston Center
12:11AM 30.5317 -95.1042 23° Northeast 338 389 14,100 1,020 Climbing Houston Center
12:12AM 30.6203 -95.0558 25° Northeast 348 400 15,200 1,140 Climbing Houston Center
12:13AM 30.6981 -94.9872 37° Northeast 349 402 16,400 1,080 Climbing Houston Center
12:14AM 30.7769 -94.9175 37° Northeast 354 407 17,400 1,020 Climbing Houston Center
12:15AM 30.8550 -94.8469 38° Northeast 356 410 18,500 1,020 Climbing Houston Center
12:16AM 30.9344 -94.7756 38° Northeast 361 415 19,500 960 Climbing Houston Center
12:17AM 31.0144 -94.7042 37° Northeast 363 418 20,500 960 Climbing Houston Center
12:18AM 31.0933 -94.6317 38° Northeast 367 422 21,500 1,020 Climbing Houston Center
12:19AM 31.1889 -94.5442 38° Northeast 371 427 22,600 1,020 Climbing Houston Center
12:20AM 31.2692 -94.4722 37° Northeast 369 425 23,600 960 Climbing Houston Center
12:21AM 31.3503 -94.4003 37° Northeast 369 425 24,600 960 Climbing Houston Center
12:22AM 31.4311 -94.3261 38° Northeast 370 426 25,600 960 Climbing Houston Center
12:23AM 31.5122 -94.2525 38° Northeast 369 425 26,600 960 Climbing Houston Center
12:24AM 31.5936 -94.1783 38° Northeast 371 427 27,600 900 Climbing Houston Center
12:25AM 31.6747 -94.1033 38° Northeast 371 427 28,500 900 Climbing Houston Center
12:26AM 31.7567 -94.0289 38° Northeast 373 429 29,500 900 Climbing Houston Center
12:27AM 31.8314 -93.9606 38° Northeast 378 435 30,400 960 Climbing Houston Center
12:28AM 31.8789 -93.9175 38° Northeast 367 422 31,000 1,080 Climbing Fort Worth Center
12:29AM 31.9725 -93.8306 38° Northeast 372 428 32,100 1,020 Climbing Fort Worth Center
12:30AM 32.0581 -93.7561 36° Northeast 377 434 33,100 900 Climbing Fort Worth Center
12:31AM 32.1311 -93.6844 40° Northeast 377 434 34,000 900 Climbing Fort Worth Center
12:32AM 32.2122 -93.6028 40° Northeast 377 434 34,900 480 Climbing Fort Worth Center
12:33AM 32.3053 -93.5128 39° Northeast 387 445 35,000  Climbing Fort Worth Center
12:34AM 32.3986 -93.4275 38° Northeast 399 459 35,000  Level Fort Worth Center
12:35AM 32.4919 -93.3397 38° Northeast 412 474 35,000  Level Fort Worth Center
12:36AM 32.5872 -93.2517 38° Northeast 428 493 35,000  Level Fort Worth Center
12:37AM 32.6864 -93.1583 38° Northeast 439 505 35,000  Level Fort Worth Center
12:38AM 32.7875 -93.0619 39° Northeast 444 511 35,000  Level Fort Worth Center
12:39AM 32.8883 -92.9681 38° Northeast 456 525 35,000  Level Fort Worth Center
12:40AM 32.9894 -92.8739 38° Northeast 456 525 35,000  Level Fort Worth Center
12:42AM 33.2294 -92.6444 39° Northeast 444 511 35,000  Level Memphis Center
12:43AM 33.3292 -92.5503 38° Northeast 451 519 35,000  Level Memphis Center
12:44AM 33.4311 -92.4506 39° Northeast 459 528 35,000  Level Memphis Center
12:45AM 33.5308 -92.3533 39° Northeast 459 528 35,000  Level Memphis Center
12:46AM 33.6303 -92.2558 39° Northeast 459 528 35,000  Level Memphis Center
12:47AM 33.7339 -92.1606 37° Northeast 453 521 35,000  Level Memphis Center
12:48AM 33.8314 -92.0628 40° Northeast 458 527 35,000  Level Memphis Center
12:49AM 33.9328 -91.9669 38° Northeast 453 521 35,000  Level Memphis Center
12:50AM 34.0322 -91.8686 39° Northeast 453 521 35,000  Level Memphis Center
12:51AM 34.1294 -91.7675 41° Northeast 453 521 35,000  Level Memphis Center
12:52AM 34.2158 -91.6808 40° Northeast 453 521 35,000  Level Memphis Center
12:53AM 34.3275 -91.5744 38° Northeast 453 521 35,000 180 Level Memphis Center
12:54AM 34.4264 -91.4778 39° Northeast 453 521 35,400 660 Climbing Memphis Center
12:55AM 34.5211 -91.3806 40° Northeast 446 513 36,400 780 Climbing Memphis Center
12:56AM 34.6158 -91.2883 39° Northeast 446 513 37,000 300 Climbing Memphis Center
12:57AM 34.7042 -91.1933 41° Northeast 441 507 37,000  Level Memphis Center
12:58AM 34.8028 -91.1006 38° Northeast 435 501 37,000  Level Memphis Center
12:59AM 34.9036 -90.9978 40° Northeast 447 514 37,000  Level Memphis Center
01:00AM 34.9978 -90.9022 40° Northeast 452 520 37,000  Level Memphis Center
01:01AM 35.0858 -90.8114 40° Northeast 452 520 37,000  Level Memphis Center
01:02AM 35.1842 -90.7103 40° Northeast 452 520 37,000  Level Memphis Center
01:03AM 35.2803 -90.6114 40° Northeast 457 526 37,000  Level Memphis Center
01:04AM 35.3786 -90.5125 39° Northeast 451 519 37,000  Level Memphis Center
01:05AM 35.4767 -90.4106 40° Northeast 451 519 37,000  Level Memphis Center
01:06AM 35.5853 -90.2983 40° Northeast 456 525 37,000  Level Memphis Center
01:07AM 35.6811 -90.1986 40° Northeast 456 525 37,000  Level Memphis Center
01:08AM 35.7725 -90.0986 42° Northeast 448 516 37,000  Level Memphis Center
01:09AM 35.8683 -89.9958 41° Northeast 448 516 37,000  Level Memphis Center
01:10AM 35.9658 -89.8953 40° Northeast 453 521 37,000  Level Memphis Center
01:11AM 36.0633 -89.7919 41° Northeast 453 521 37,000  Level Memphis Center
01:12AM 36.1589 -89.6936 40° Northeast 453 521 37,000  Level Memphis Center
01:13AM 36.2564 -89.5925 40° Northeast 453 521 37,000  Level Memphis Center
01:14AM 36.3411 -89.5067 39° Northeast 453 521 37,000  Level Memphis Center
01:15AM 36.4425 -89.3947 42° Northeast 460 529 37,000  Level Memphis Center
01:16AM 36.5417 -89.2956 39° Northeast 461 531 37,000  Level Memphis Center
01:17AM 36.6325 -89.1933 42° Northeast 448 516 37,000  Level Memphis Center
01:18AM 36.7253 -89.0911 41° Northeast 448 516 37,000  Level Memphis Center
01:19AM 36.8242 -88.9883 40° Northeast 448 516 37,000  Level Memphis Center
01:20AM 36.9189 -88.8831 42° Northeast 453 521 37,000  Level Memphis Center
01:21AM 37.0136 -88.7800 41° Northeast 453 521 37,000  Level Memphis Center
01:23AM 37.1722 -88.6028 42° Northeast 454 522 37,000  Level Indianapolis Center
01:24AM 37.2692 -88.4967 41° Northeast 456 525 37,000  Level Indianapolis Center
01:25AM 37.3661 -88.3897 41° Northeast 457 526 37,000  Level Indianapolis Center
01:26AM 37.4628 -88.2828 41° Northeast 459 528 37,000  Level Indianapolis Center
01:27AM 37.5597 -88.1753 41° Northeast 460 529 37,000  Level Indianapolis Center
01:28AM 37.6558 -88.0683 41° Northeast 456 525 37,000  Level Indianapolis Center
01:29AM 37.7531 -87.9589 42° Northeast 460 529 37,000  Level Indianapolis Center
01:30AM 37.8594 -87.8492 39° Northeast 459 528 37,000  Level Indianapolis Center
01:31AM 37.9497 -87.7831 30° Northeast 462 532 37,000  Level Indianapolis Center
01:32AM 38.0603 -87.7000 31° Northeast 461 531 37,000 -180 Level Indianapolis Center
01:33AM 38.1739 -87.6147 31° Northeast 468 539 36,700 -1,380 Descending Indianapolis Center
01:34AM 38.2878 -87.5300 30° Northeast 468 539 34,300 -2,340 Descending Indianapolis Center
01:35AM 38.3972 -87.4453 31° Northeast 457 526 32,100 -2,160 Descending Indianapolis Center
01:36AM 38.5000 -87.3683 30° Northeast 427 491 30,000 -2,040 Descending Indianapolis Center
01:37AM 38.6014 -87.2911 31° Northeast 420 483 28,000 -2,040 Descending Indianapolis Center
01:38AM 38.7081 -87.2092 31° Northeast 439 505 26,000 -2,100 Descending Indianapolis Center
01:39AM 38.8181 -87.1258 31° Northeast 452 520 23,800 -2,400 Descending Indianapolis Center
01:40AM 38.9244 -87.0422 31° Northeast 448 516 21,300 -2,520 Descending Indianapolis Center
01:41AM 39.0269 -86.9644 31° Northeast 430 495 18,800 -2,400 Descending Indianapolis Center
01:42AM 39.1219 -86.8883 32° Northeast 407 468 16,600 -2,100 Descending Indianapolis Center
01:43AM 39.2067 -86.8264 30° Northeast 397 457 14,700 -2,100 Descending Indianapolis Center
01:44AM 39.3000 -86.7581 30° Northeast 389 448 12,400 -2,220 Descending Indianapolis Center
01:45AM 39.4031 -86.6822 30° Northeast 360 414 10,300 -1,560 Descending Indianapolis Center
01:46AM 39.4625 -86.6103 43° Northeast 302 348 9,300 -1,860 Descending Indianapolis Center
01:47AM 39.5125 -86.5450 45° Northeast 267 307 6,600 -2,100 Descending Indianapolis Center
01:48AM 39.5594 -86.4828 46° Northeast 248 285 5,100 -1,500 Descending Indianapolis Center
01:49AM 39.6017 -86.4294 44° Northeast 222 255 3,700 -1,320 Descending Indianapolis Center
01:50AM 39.6392 -86.3831 44° Northeast 203 234 2,500 -900 Descending Indianapolis Center
01:51AM 39.6622 -86.3528 45° Northeast 149 171 1,900 -600 Descending Indianapolis Center
01:52AM 39.6861 -86.3225 44° Northeast 127 146 1,300 -540 Descending Indianapolis Center
01:53AM 39.7081 -86.2947 44° Northeast 125 144 900 -420 Descending Indianapolis Center
01:55AM 39.7167 -86.2833 142° Southeast  Level FlightAware Approximate